sensor_id;sensor_type;location;lat;lon;timestamp;temperature;humidity
285;DHT22;127;48.770;9.212;2023-01-26T00:00:10;1.10;99.90
285;DHT22;127;48.770;9.212;2023-01-26T00:02:39;1.10;99.90
285;DHT22;127;48.770;9.212;2023-01-26T00:05:08;1.10;99.90
285;DHT22;127;48.770;9.212;2023-01-26T00:07:37;1.00;99.90
285;DHT22;127;48.770;9.212;2023-01-26T00:10:10;1.00;99.90
285;DHT22;127;48.770;9.212;2023-01-26T00:12:39;1.00;99.90
285;DHT22;127;48.770;9.212;2023-01-26T00:15:11;1.00;99.90
285;DHT22;127;48.770;9.212;2023-01-26T00:17:39;0.90;99.90
285;DHT22;127;48.770;9.212;2023-01-26T00:20:09;0.80;99.90
285;DHT22;127;48.770;9.212;2023-01-26T00:22:38;0.90;1.00
285;DHT22;127;48.770;9.212;2023-01-26T00:25:07;0.90;1.00
285;DHT22;127;48.770;9.212;2023-01-26T00:27:36;1.00;1.00
285;DHT22;127;48.770;9.212;2023-01-26T00:30:06;1.00;1.00
285;DHT22;127;48.770;9.212;2023-01-26T00:32:38;0.90;1.00
285;DHT22;127;48.770;9.212;2023-01-26T00:35:07;0.90;1.00
285;DHT22;127;48.770;9.212;2023-01-26T00:37:36;0.70;1.00
285;DHT22;127;48.770;9.212;2023-01-26T00:40:05;0.80;1.00
285;DHT22;127;48.770;9.212;2023-01-26T00:42:34;0.80;1.00
285;DHT22;127;48.770;9.212;2023-01-26T00:45:05;0.80;1.00
285;DHT22;127;48.770;9.212;2023-01-26T00:47:36;0.90;1.00
285;DHT22;127;48.770;9.212;2023-01-26T00:50:06;1.00;1.00
285;DHT22;127;48.770;9.212;2023-01-26T00:52:34;1.10;1.00
285;DHT22;127;48.770;9.212;2023-01-26T00:55:04;1.10;1.00
285;DHT22;127;48.770;9.212;2023-01-26T00:57:32;0.90;1.00
285;DHT22;127;48.770;9.212;2023-01-26T01:00:01;1.00;1.00
285;DHT22;127;48.770;9.212;2023-01-26T01:02:30;1.10;1.00
285;DHT22;127;48.770;9.212;2023-01-26T01:05:02;1.20;1.00
285;DHT22;127;48.770;9.212;2023-01-26T01:07:30;0.90;99.90
285;DHT22;127;48.770;9.212;2023-01-26T01:09:59;1.00;1.00
285;DHT22;127;48.770;9.212;2023-01-26T01:12:28;1.00;1.00
285;DHT22;127;48.770;9.212;2023-01-26T01:14:56;1.10;1.00
285;DHT22;127;48.770;9.212;2023-01-26T01:17:25;1.00;99.90
285;DHT22;127;48.770;9.212;2023-01-26T01:19:53;1.20;99.90
285;DHT22;127;48.770;9.212;2023-01-26T01:22:24;1.30;99.90
285;DHT22;127;48.770;9.212;2023-01-26T01:24:53;1.40;99.90
285;DHT22;127;48.770;9.212;2023-01-26T01:27:22;1.30;99.90
285;DHT22;127;48.770;9.212;2023-01-26T01:29:50;1.40;99.90
285;DHT22;127;48.770;9.212;2023-01-26T01:32:19;1.30;99.90
285;DHT22;127;48.770;9.212;2023-01-26T01:34:49;1.30;99.90
285;DHT22;127;48.770;9.212;2023-01-26T01:37:17;0.90;99.90
285;DHT22;127;48.770;9.212;2023-01-26T01:39:48;0.70;99.90
285;DHT22;127;48.770;9.212;2023-01-26T01:42:17;0.60;99.90
285;DHT22;127;48.770;9.212;2023-01-26T01:45:25;0.50;1.00
285;DHT22;127;48.770;9.212;2023-01-26T01:47:57;0.30;1.00
285;DHT22;127;48.770;9.212;2023-01-26T01:50:26;0.40;1.00
285;DHT22;127;48.770;9.212;2023-01-26T01:52:55;0.40;1.00
285;DHT22;127;48.770;9.212;2023-01-26T01:55:28;0.30;1.00
285;DHT22;127;48.770;9.212;2023-01-26T01:57:58;0.50;1.00
285;DHT22;127;48.770;9.212;2023-01-26T02:00:29;0.30;1.00
285;DHT22;127;48.770;9.212;2023-01-26T02:03:00;0.50;1.00
285;DHT22;127;48.770;9.212;2023-01-26T02:05:53;0.60;1.00
285;DHT22;127;48.770;9.212;2023-01-26T02:08:25;0.60;1.00
285;DHT22;127;48.770;9.212;2023-01-26T02:11:00;0.60;1.00
285;DHT22;127;48.770;9.212;2023-01-26T02:13:31;0.70;1.00
285;DHT22;127;48.770;9.212;2023-01-26T02:16:00;0.80;1.00
285;DHT22;127;48.770;9.212;2023-01-26T02:18:29;0.80;1.00
285;DHT22;127;48.770;9.212;2023-01-26T02:21:00;0.90;1.00
285;DHT22;127;48.770;9.212;2023-01-26T02:23:39;0.80;1.00
285;DHT22;127;48.770;9.212;2023-01-26T02:26:13;0.90;1.00
285;DHT22;127;48.770;9.212;2023-01-26T02:28:43;1.00;1.00
285;DHT22;127;48.770;9.212;2023-01-26T02:31:12;0.70;1.00
285;DHT22;127;48.770;9.212;2023-01-26T02:33:42;0.70;1.00
285;DHT22;127;48.770;9.212;2023-01-26T02:36:18;0.80;1.00
285;DHT22;127;48.770;9.212;2023-01-26T02:38:54;0.80;1.00
285;DHT22;127;48.770;9.212;2023-01-26T02:47:50;0.90;1.00
285;DHT22;127;48.770;9.212;2023-01-26T02:50:18;0.90;1.00
285;DHT22;127;48.770;9.212;2023-01-26T02:52:44;0.80;1.00
285;DHT22;127;48.770;9.212;2023-01-26T02:55:13;0.70;1.00
285;DHT22;127;48.770;9.212;2023-01-26T02:57:51;0.60;1.00
285;DHT22;127;48.770;9.212;2023-01-26T03:00:21;0.60;1.00
285;DHT22;127;48.770;9.212;2023-01-26T03:02:55;0.70;1.00
285;DHT22;127;48.770;9.212;2023-01-26T03:05:24;0.60;1.00
285;DHT22;127;48.770;9.212;2023-01-26T03:07:53;0.70;1.00
285;DHT22;127;48.770;9.212;2023-01-26T03:10:22;0.70;1.00
285;DHT22;127;48.770;9.212;2023-01-26T03:12:51;0.60;1.00
285;DHT22;127;48.770;9.212;2023-01-26T03:15:20;0.60;1.00
285;DHT22;127;48.770;9.212;2023-01-26T03:18:06;0.60;1.00
285;DHT22;127;48.770;9.212;2023-01-26T03:21:05;0.60;1.00
285;DHT22;127;48.770;9.212;2023-01-26T03:23:47;0.70;1.00
285;DHT22;127;48.770;9.212;2023-01-26T03:26:28;0.60;1.00
285;DHT22;127;48.770;9.212;2023-01-26T03:29:09;0.60;1.00
285;DHT22;127;48.770;9.212;2023-01-26T03:31:38;0.60;1.00
285;DHT22;127;48.770;9.212;2023-01-26T03:34:09;0.60;1.00
285;DHT22;127;48.770;9.212;2023-01-26T03:36:38;0.60;1.00
285;DHT22;127;48.770;9.212;2023-01-26T03:39:07;0.60;1.00
285;DHT22;127;48.770;9.212;2023-01-26T03:41:55;0.70;1.00
285;DHT22;127;48.770;9.212;2023-01-26T03:51:01;0.50;1.00
285;DHT22;127;48.770;9.212;2023-01-26T03:53:42;0.50;1.00
285;DHT22;127;48.770;9.212;2023-01-26T03:56:23;0.40;1.00
285;DHT22;127;48.770;9.212;2023-01-26T03:58:58;0.40;1.00
285;DHT22;127;48.770;9.212;2023-01-26T04:01:33;0.30;1.00
285;DHT22;127;48.770;9.212;2023-01-26T04:04:03;0.50;1.00
285;DHT22;127;48.770;9.212;2023-01-26T04:06:48;0.50;1.00
285;DHT22;127;48.770;9.212;2023-01-26T04:09:29;0.60;1.00
285;DHT22;127;48.770;9.212;2023-01-26T04:11:59;0.50;1.00
285;DHT22;127;48.770;9.212;2023-01-26T04:14:27;0.50;1.00
285;DHT22;127;48.770;9.212;2023-01-26T04:17:09;0.60;1.00
285;DHT22;127;48.770;9.212;2023-01-26T04:19:50;0.50;1.00
285;DHT22;127;48.770;9.212;2023-01-26T04:22:37;0.60;1.00
285;DHT22;127;48.770;9.212;2023-01-26T04:25:08;0.60;1.00
285;DHT22;127;48.770;9.212;2023-01-26T04:27:38;0.60;1.00
285;DHT22;127;48.770;9.212;2023-01-26T04:30:08;0.70;1.00
285;DHT22;127;48.770;9.212;2023-01-26T04:32:38;0.50;1.00
285;DHT22;127;48.770;9.212;2023-01-26T04:35:08;0.50;1.00
285;DHT22;127;48.770;9.212;2023-01-26T04:37:39;0.40;1.00
285;DHT22;127;48.770;9.212;2023-01-26T04:40:09;0.40;1.00
285;DHT22;127;48.770;9.212;2023-01-26T04:42:38;0.50;1.00
285;DHT22;127;48.770;9.212;2023-01-26T04:45:09;0.50;1.00
285;DHT22;127;48.770;9.212;2023-01-26T04:47:38;0.50;1.00
285;DHT22;127;48.770;9.212;2023-01-26T04:50:08;0.60;1.00
285;DHT22;127;48.770;9.212;2023-01-26T04:59:03;0.30;1.00
285;DHT22;127;48.770;9.212;2023-01-26T05:07:54;0.20;1.00
285;DHT22;127;48.770;9.212;2023-01-26T05:10:23;0.30;1.00
285;DHT22;127;48.770;9.212;2023-01-26T05:12:52;0.30;1.00
285;DHT22;127;48.770;9.212;2023-01-26T05:15:23;0.30;1.00
285;DHT22;127;48.770;9.212;2023-01-26T05:17:51;0.30;1.00
285;DHT22;127;48.770;9.212;2023-01-26T05:20:20;0.30;1.00
285;DHT22;127;48.770;9.212;2023-01-26T05:22:48;0.20;1.00
285;DHT22;127;48.770;9.212;2023-01-26T05:25:17;0.30;1.00
285;DHT22;127;48.770;9.212;2023-01-26T05:27:46;0.30;1.00
285;DHT22;127;48.770;9.212;2023-01-26T05:30:15;0.20;1.00
285;DHT22;127;48.770;9.212;2023-01-26T05:42:47;0.10;1.00
285;DHT22;127;48.770;9.212;2023-01-26T05:45:16;0.10;1.00
285;DHT22;127;48.770;9.212;2023-01-26T05:47:45;0.00;1.00
285;DHT22;127;48.770;9.212;2023-01-26T05:50:14;0.00;1.00
285;DHT22;127;48.770;9.212;2023-01-26T05:52:43;-0.10;1.00
285;DHT22;127;48.770;9.212;2023-01-26T05:55:14;0.00;1.00
285;DHT22;127;48.770;9.212;2023-01-26T05:57:43;0.00;1.00
285;DHT22;127;48.770;9.212;2023-01-26T06:00:15;0.10;1.00
285;DHT22;127;48.770;9.212;2023-01-26T06:02:44;0.10;1.00
285;DHT22;127;48.770;9.212;2023-01-26T06:05:13;0.10;1.00
285;DHT22;127;48.770;9.212;2023-01-26T06:07:41;0.10;1.00
285;DHT22;127;48.770;9.212;2023-01-26T06:10:10;0.20;1.00
285;DHT22;127;48.770;9.212;2023-01-26T06:12:42;0.20;1.00
285;DHT22;127;48.770;9.212;2023-01-26T06:15:11;0.10;1.00
285;DHT22;127;48.770;9.212;2023-01-26T06:17:42;0.00;1.00
285;DHT22;127;48.770;9.212;2023-01-26T06:20:11;0.10;1.00
285;DHT22;127;48.770;9.212;2023-01-26T06:22:39;0.00;1.00
285;DHT22;127;48.770;9.212;2023-01-26T06:25:08;0.00;1.00
285;DHT22;127;48.770;9.212;2023-01-26T06:27:37;0.00;1.00
285;DHT22;127;48.770;9.212;2023-01-26T06:30:08;0.00;1.00
285;DHT22;127;48.770;9.212;2023-01-26T06:32:37;-0.10;1.00
285;DHT22;127;48.770;9.212;2023-01-26T06:35:09;-0.10;1.00
285;DHT22;127;48.770;9.212;2023-01-26T06:37:37;0.00;1.00
285;DHT22;127;48.770;9.212;2023-01-26T06:40:07;0.00;1.00
285;DHT22;127;48.770;9.212;2023-01-26T06:42:36;-0.10;1.00
285;DHT22;127;48.770;9.212;2023-01-26T06:45:06;-0.10;1.00
285;DHT22;127;48.770;9.212;2023-01-26T06:47:35;-0.10;1.00
285;DHT22;127;48.770;9.212;2023-01-26T06:50:04;-0.10;1.00
285;DHT22;127;48.770;9.212;2023-01-26T06:52:35;-0.20;1.00
285;DHT22;127;48.770;9.212;2023-01-26T06:55:04;-0.10;1.00
285;DHT22;127;48.770;9.212;2023-01-26T06:57:33;-0.20;1.00
285;DHT22;127;48.770;9.212;2023-01-26T07:00:02;-0.20;1.00
285;DHT22;127;48.770;9.212;2023-01-26T07:02:31;-0.20;1.00
285;DHT22;127;48.770;9.212;2023-01-26T07:05:00;-0.10;1.00
285;DHT22;127;48.770;9.212;2023-01-26T07:07:28;-0.10;1.00
285;DHT22;127;48.770;9.212;2023-01-26T07:09:59;-0.10;1.00
285;DHT22;127;48.770;9.212;2023-01-26T07:12:37;-0.20;1.00
285;DHT22;127;48.770;9.212;2023-01-26T07:15:07;-0.20;1.00
285;DHT22;127;48.770;9.212;2023-01-26T07:17:36;-0.50;1.00
285;DHT22;127;48.770;9.212;2023-01-26T07:20:06;-0.40;1.00
285;DHT22;127;48.770;9.212;2023-01-26T07:22:34;-0.40;1.00
285;DHT22;127;48.770;9.212;2023-01-26T07:25:06;-0.30;1.00
285;DHT22;127;48.770;9.212;2023-01-26T07:27:35;-0.20;1.00
285;DHT22;127;48.770;9.212;2023-01-26T07:30:04;-0.20;1.00
285;DHT22;127;48.770;9.212;2023-01-26T07:32:33;-0.20;1.00
285;DHT22;127;48.770;9.212;2023-01-26T07:35:02;-0.20;1.00
285;DHT22;127;48.770;9.212;2023-01-26T07:37:30;-0.10;1.00
285;DHT22;127;48.770;9.212;2023-01-26T07:39:59;-0.10;1.00
285;DHT22;127;48.770;9.212;2023-01-26T07:42:30;0.00;1.00
285;DHT22;127;48.770;9.212;2023-01-26T07:44:59;-0.20;1.00
285;DHT22;127;48.770;9.212;2023-01-26T07:47:28;-0.20;1.00
285;DHT22;127;48.770;9.212;2023-01-26T07:49:56;-0.10;1.00
285;DHT22;127;48.770;9.212;2023-01-26T07:52:25;-0.10;1.00
285;DHT22;127;48.770;9.212;2023-01-26T07:54:53;0.00;1.00
285;DHT22;127;48.770;9.212;2023-01-26T07:57:22;-0.10;1.00
285;DHT22;127;48.770;9.212;2023-01-26T07:59:53;-0.20;1.00
285;DHT22;127;48.770;9.212;2023-01-26T08:02:22;-0.10;1.00
285;DHT22;127;48.770;9.212;2023-01-26T08:04:50;-0.10;1.00
285;DHT22;127;48.770;9.212;2023-01-26T08:07:19;0.00;1.00
285;DHT22;127;48.770;9.212;2023-01-26T08:09:48;0.00;1.00
285;DHT22;127;48.770;9.212;2023-01-26T08:12:16;-0.10;1.00
285;DHT22;127;48.770;9.212;2023-01-26T08:14:45;-0.10;1.00
285;DHT22;127;48.770;9.212;2023-01-26T08:17:16;0.00;1.00
285;DHT22;127;48.770;9.212;2023-01-26T08:19:45;0.00;1.00
285;DHT22;127;48.770;9.212;2023-01-26T08:22:14;0.00;1.00
285;DHT22;127;48.770;9.212;2023-01-26T08:24:42;-0.10;1.00
285;DHT22;127;48.770;9.212;2023-01-26T08:27:11;-0.10;1.00
285;DHT22;127;48.770;9.212;2023-01-26T08:29:40;0.00;1.00
285;DHT22;127;48.770;9.212;2023-01-26T08:32:09;0.20;1.00
285;DHT22;127;48.770;9.212;2023-01-26T08:34:40;0.20;1.00
285;DHT22;127;48.770;9.212;2023-01-26T08:37:09;0.20;1.00
285;DHT22;127;48.770;9.212;2023-01-26T08:39:37;0.20;1.00
285;DHT22;127;48.770;9.212;2023-01-26T08:42:06;0.30;1.00
285;DHT22;127;48.770;9.212;2023-01-26T08:44:35;0.30;1.00
285;DHT22;127;48.770;9.212;2023-01-26T08:47:03;0.10;1.00
285;DHT22;127;48.770;9.212;2023-01-26T08:49:32;0.10;1.00
285;DHT22;127;48.770;9.212;2023-01-26T08:52:03;0.10;1.00
285;DHT22;127;48.770;9.212;2023-01-26T08:54:32;0.30;1.00
285;DHT22;127;48.770;9.212;2023-01-26T08:57:00;0.30;1.00
285;DHT22;127;48.770;9.212;2023-01-26T08:59:29;0.30;99.90
285;DHT22;127;48.770;9.212;2023-01-26T09:01:58;0.20;99.90
285;DHT22;127;48.770;9.212;2023-01-26T09:04:26;0.30;99.90
285;DHT22;127;48.770;9.212;2023-01-26T09:06:55;0.30;99.90
285;DHT22;127;48.770;9.212;2023-01-26T09:09:27;0.20;99.90
285;DHT22;127;48.770;9.212;2023-01-26T09:11:58;0.30;99.90
285;DHT22;127;48.770;9.212;2023-01-26T09:14:27;0.30;99.90
285;DHT22;127;48.770;9.212;2023-01-26T09:16:56;0.20;99.90
285;DHT22;127;48.770;9.212;2023-01-26T09:19:24;0.20;99.90
285;DHT22;127;48.770;9.212;2023-01-26T09:21:53;0.20;99.90
285;DHT22;127;48.770;9.212;2023-01-26T09:24:22;0.30;99.90
285;DHT22;127;48.770;9.212;2023-01-26T09:26:53;0.30;99.90
285;DHT22;127;48.770;9.212;2023-01-26T09:29:22;0.20;99.90
285;DHT22;127;48.770;9.212;2023-01-26T09:31:51;0.20;99.90
285;DHT22;127;48.770;9.212;2023-01-26T09:34:19;0.20;99.90
285;DHT22;127;48.770;9.212;2023-01-26T09:36:49;0.20;99.90
285;DHT22;127;48.770;9.212;2023-01-26T09:39:18;0.20;99.90
285;DHT22;127;48.770;9.212;2023-01-26T09:41:59;0.20;99.90
285;DHT22;127;48.770;9.212;2023-01-26T09:44:35;0.20;99.90
285;DHT22;127;48.770;9.212;2023-01-26T09:47:09;0.20;99.90
285;DHT22;127;48.770;9.212;2023-01-26T09:49:45;0.30;99.90
285;DHT22;127;48.770;9.212;2023-01-26T09:52:21;0.30;99.90
285;DHT22;127;48.770;9.212;2023-01-26T10:01:23;0.10;99.90
285;DHT22;127;48.770;9.212;2023-01-26T10:04:00;0.00;99.90
285;DHT22;127;48.770;9.212;2023-01-26T10:06:30;0.00;99.90
285;DHT22;127;48.770;9.212;2023-01-26T10:09:01;0.10;99.90
285;DHT22;127;48.770;9.212;2023-01-26T10:11:36;0.20;99.90
285;DHT22;127;48.770;9.212;2023-01-26T10:14:11;0.20;99.90
285;DHT22;127;48.770;9.212;2023-01-26T10:16:47;0.10;99.90
285;DHT22;127;48.770;9.212;2023-01-26T10:19:22;0.10;99.90
285;DHT22;127;48.770;9.212;2023-01-26T10:21:59;0.10;99.90
285;DHT22;127;48.770;9.212;2023-01-26T10:24:32;0.10;99.90
285;DHT22;127;48.770;9.212;2023-01-26T10:27:01;0.20;99.90
285;DHT22;127;48.770;9.212;2023-01-26T10:29:30;0.10;99.90
285;DHT22;127;48.770;9.212;2023-01-26T10:32:02;0.20;99.90
285;DHT22;127;48.770;9.212;2023-01-26T10:34:32;0.10;99.90
285;DHT22;127;48.770;9.212;2023-01-26T10:37:10;0.10;99.90
285;DHT22;127;48.770;9.212;2023-01-26T10:39:56;0.20;99.90
285;DHT22;127;48.770;9.212;2023-01-26T10:42:27;0.20;99.90
285;DHT22;127;48.770;9.212;2023-01-26T10:44:57;0.20;99.90
285;DHT22;127;48.770;9.212;2023-01-26T10:47:29;0.30;99.90
285;DHT22;127;48.770;9.212;2023-01-26T10:50:20;0.30;99.90
285;DHT22;127;48.770;9.212;2023-01-26T10:53:09;0.30;99.90
285;DHT22;127;48.770;9.212;2023-01-26T10:55:40;0.30;99.90
285;DHT22;127;48.770;9.212;2023-01-26T11:01:14;0.30;99.90
285;DHT22;127;48.770;9.212;2023-01-26T11:04:04;0.20;99.90
285;DHT22;127;48.770;9.212;2023-01-26T11:06:34;0.20;99.90
285;DHT22;127;48.770;9.212;2023-01-26T11:09:16;0.20;99.90
285;DHT22;127;48.770;9.212;2023-01-26T11:11:56;0.30;99.90
285;DHT22;127;48.770;9.212;2023-01-26T11:14:26;0.20;99.90
285;DHT22;127;48.770;9.212;2023-01-26T11:17:08;0.10;99.90
285;DHT22;127;48.770;9.212;2023-01-26T11:20:04;0.10;99.90
285;DHT22;127;48.770;9.212;2023-01-26T11:22:42;0.10;99.90
285;DHT22;127;48.770;9.212;2023-01-26T11:25:20;0.00;99.90
285;DHT22;127;48.770;9.212;2023-01-26T11:28:05;0.00;99.90
285;DHT22;127;48.770;9.212;2023-01-26T11:30:49;0.00;99.90
285;DHT22;127;48.770;9.212;2023-01-26T11:33:26;0.00;99.90
285;DHT22;127;48.770;9.212;2023-01-26T11:36:04;-0.10;99.90
285;DHT22;127;48.770;9.212;2023-01-26T11:38:39;-0.10;99.90
285;DHT22;127;48.770;9.212;2023-01-26T11:41:22;-0.10;99.90
285;DHT22;127;48.770;9.212;2023-01-26T11:47:03;-0.10;99.90
285;DHT22;127;48.770;9.212;2023-01-26T11:49:50;-0.20;99.90
285;DHT22;127;48.770;9.212;2023-01-26T11:52:33;-0.30;99.90
285;DHT22;127;48.770;9.212;2023-01-26T11:55:17;-0.30;99.90
285;DHT22;127;48.770;9.212;2023-01-26T11:57:56;-0.30;99.90
285;DHT22;127;48.770;9.212;2023-01-26T12:00:36;-0.30;99.90
285;DHT22;127;48.770;9.212;2023-01-26T12:03:14;-0.30;99.90
285;DHT22;127;48.770;9.212;2023-01-26T12:05:47;-0.30;99.90
285;DHT22;127;48.770;9.212;2023-01-26T12:08:22;-0.30;99.90
285;DHT22;127;48.770;9.212;2023-01-26T12:10:58;-0.20;99.90
285;DHT22;127;48.770;9.212;2023-01-26T12:13:52;-0.20;99.90
285;DHT22;127;48.770;9.212;2023-01-26T12:16:33;-0.20;99.90
285;DHT22;127;48.770;9.212;2023-01-26T12:19:11;-0.10;99.90
285;DHT22;127;48.770;9.212;2023-01-26T12:21:43;-0.10;99.90
285;DHT22;127;48.770;9.212;2023-01-26T12:24:19;0.00;99.90
285;DHT22;127;48.770;9.212;2023-01-26T12:26:51;0.00;99.90
285;DHT22;127;48.770;9.212;2023-01-26T12:29:23;0.00;99.90
285;DHT22;127;48.770;9.212;2023-01-26T12:31:59;0.10;99.90
285;DHT22;127;48.770;9.212;2023-01-26T12:34:31;0.10;99.90
285;DHT22;127;48.770;9.212;2023-01-26T12:37:12;0.20;99.90
285;DHT22;127;48.770;9.212;2023-01-26T12:39:53;0.10;99.90
285;DHT22;127;48.770;9.212;2023-01-26T12:42:32;-0.10;99.90
285;DHT22;127;48.770;9.212;2023-01-26T12:45:07;0.00;99.90
285;DHT22;127;48.770;9.212;2023-01-26T12:47:42;0.00;99.90
285;DHT22;127;48.770;9.212;2023-01-26T12:50:19;-0.10;99.90
285;DHT22;127;48.770;9.212;2023-01-26T12:52:52;-0.10;99.90
285;DHT22;127;48.770;9.212;2023-01-26T12:55:28;-0.10;99.90
285;DHT22;127;48.770;9.212;2023-01-26T12:58:00;-0.10;99.90
285;DHT22;127;48.770;9.212;2023-01-26T13:00:31;-0.10;99.90
285;DHT22;127;48.770;9.212;2023-01-26T13:03:03;-0.10;99.90
285;DHT22;127;48.770;9.212;2023-01-26T13:05:34;-0.20;99.90
285;DHT22;127;48.770;9.212;2023-01-26T13:08:45;-0.20;99.90
285;DHT22;127;48.770;9.212;2023-01-26T13:11:43;-0.20;99.90
285;DHT22;127;48.770;9.212;2023-01-26T13:14:32;-0.30;99.90
285;DHT22;127;48.770;9.212;2023-01-26T13:29:31;-0.20;99.90
285;DHT22;127;48.770;9.212;2023-01-26T13:35:00;-0.20;99.90
285;DHT22;127;48.770;9.212;2023-01-26T13:37:32;-0.30;99.90
285;DHT22;127;48.770;9.212;2023-01-26T13:40:05;-0.20;99.90
285;DHT22;127;48.770;9.212;2023-01-26T13:52:21;-0.10;99.90
285;DHT22;127;48.770;9.212;2023-01-26T13:54:51;-0.10;99.90
285;DHT22;127;48.770;9.212;2023-01-26T13:57:23;0.00;99.90
285;DHT22;127;48.770;9.212;2023-01-26T13:59:54;-0.10;99.90
285;DHT22;127;48.770;9.212;2023-01-26T14:02:25;-0.10;99.90
285;DHT22;127;48.770;9.212;2023-01-26T14:04:56;0.00;99.90
285;DHT22;127;48.770;9.212;2023-01-26T14:07:31;-0.10;99.90
285;DHT22;127;48.770;9.212;2023-01-26T14:10:01;-0.10;99.90
285;DHT22;127;48.770;9.212;2023-01-26T14:12:32;0.00;99.90
285;DHT22;127;48.770;9.212;2023-01-26T14:15:04;0.10;99.90
285;DHT22;127;48.770;9.212;2023-01-26T14:17:35;0.00;99.90
285;DHT22;127;48.770;9.212;2023-01-26T14:20:19;0.00;99.90
285;DHT22;127;48.770;9.212;2023-01-26T14:23:13;0.00;99.90
285;DHT22;127;48.770;9.212;2023-01-26T14:25:46;-0.10;99.90
285;DHT22;127;48.770;9.212;2023-01-26T14:28:18;-0.20;99.90
285;DHT22;127;48.770;9.212;2023-01-26T14:30:51;-0.10;99.90
285;DHT22;127;48.770;9.212;2023-01-26T14:33:21;0.10;99.90
285;DHT22;127;48.770;9.212;2023-01-26T14:35:56;0.00;99.90
285;DHT22;127;48.770;9.212;2023-01-26T14:38:27;-0.10;99.90
285;DHT22;127;48.770;9.212;2023-01-26T14:40:58;-0.20;99.90
285;DHT22;127;48.770;9.212;2023-01-26T14:43:28;-0.20;99.90
285;DHT22;127;48.770;9.212;2023-01-26T14:45:59;-0.20;99.90
285;DHT22;127;48.770;9.212;2023-01-26T14:48:35;-0.20;99.90
285;DHT22;127;48.770;9.212;2023-01-26T14:51:05;-0.30;99.90
285;DHT22;127;48.770;9.212;2023-01-26T14:53:48;-0.30;99.90
285;DHT22;127;48.770;9.212;2023-01-26T14:56:19;-0.30;99.90
285;DHT22;127;48.770;9.212;2023-01-26T14:58:50;-0.30;99.90
285;DHT22;127;48.770;9.212;2023-01-26T15:01:20;-0.30;99.90
285;DHT22;127;48.770;9.212;2023-01-26T15:03:56;-0.20;99.90
285;DHT22;127;48.770;9.212;2023-01-26T15:06:27;-0.20;99.90
285;DHT22;127;48.770;9.212;2023-01-26T15:09:02;-0.20;99.90
285;DHT22;127;48.770;9.212;2023-01-26T15:11:35;-0.20;99.90
285;DHT22;127;48.770;9.212;2023-01-26T15:14:31;-0.20;99.90
285;DHT22;127;48.770;9.212;2023-01-26T15:17:00;-0.20;99.90
285;DHT22;127;48.770;9.212;2023-01-26T15:19:37;-0.10;99.90
285;DHT22;127;48.770;9.212;2023-01-26T15:22:17;-0.20;99.90
285;DHT22;127;48.770;9.212;2023-01-26T15:24:59;-0.10;99.90
285;DHT22;127;48.770;9.212;2023-01-26T15:27:32;-0.10;99.90
285;DHT22;127;48.770;9.212;2023-01-26T15:30:03;-0.10;99.90
285;DHT22;127;48.770;9.212;2023-01-26T15:32:38;-0.10;99.90
285;DHT22;127;48.770;9.212;2023-01-26T15:35:19;-0.10;99.90
285;DHT22;127;48.770;9.212;2023-01-26T15:37:48;-0.20;99.90
285;DHT22;127;48.770;9.212;2023-01-26T15:40:19;-0.20;99.90
285;DHT22;127;48.770;9.212;2023-01-26T15:42:48;-0.10;99.90
285;DHT22;127;48.770;9.212;2023-01-26T15:45:23;-0.10;99.90
285;DHT22;127;48.770;9.212;2023-01-26T15:47:52;0.00;99.90
285;DHT22;127;48.770;9.212;2023-01-26T15:50:20;0.00;99.90
285;DHT22;127;48.770;9.212;2023-01-26T15:52:50;-0.10;99.90
285;DHT22;127;48.770;9.212;2023-01-26T15:55:25;0.00;99.90
285;DHT22;127;48.770;9.212;2023-01-26T15:57:55;0.00;99.90
285;DHT22;127;48.770;9.212;2023-01-26T16:00:24;0.00;99.90
285;DHT22;127;48.770;9.212;2023-01-26T16:02:52;0.10;99.90
285;DHT22;127;48.770;9.212;2023-01-26T16:05:22;0.10;99.90
285;DHT22;127;48.770;9.212;2023-01-26T16:07:51;0.10;99.90
285;DHT22;127;48.770;9.212;2023-01-26T16:10:22;0.10;99.90
285;DHT22;127;48.770;9.212;2023-01-26T16:12:51;0.00;99.90
285;DHT22;127;48.770;9.212;2023-01-26T16:15:29;0.10;99.90
285;DHT22;127;48.770;9.212;2023-01-26T16:18:00;0.00;99.90
285;DHT22;127;48.770;9.212;2023-01-26T16:20:28;0.10;99.90
285;DHT22;127;48.770;9.212;2023-01-26T16:22:57;0.10;99.90
285;DHT22;127;48.770;9.212;2023-01-26T16:25:30;0.00;99.90
285;DHT22;127;48.770;9.212;2023-01-26T16:27:58;-0.10;99.90
285;DHT22;127;48.770;9.212;2023-01-26T16:30:27;-0.30;99.90
285;DHT22;127;48.770;9.212;2023-01-26T16:32:56;-0.30;99.90
285;DHT22;127;48.770;9.212;2023-01-26T16:35:25;-0.10;99.90
285;DHT22;127;48.770;9.212;2023-01-26T16:37:54;0.00;99.90
285;DHT22;127;48.770;9.212;2023-01-26T16:40:22;0.00;99.90
285;DHT22;127;48.770;9.212;2023-01-26T16:42:54;0.10;99.90
285;DHT22;127;48.770;9.212;2023-01-26T16:45:24;0.00;99.90
285;DHT22;127;48.770;9.212;2023-01-26T16:47:55;-0.20;99.90
285;DHT22;127;48.770;9.212;2023-01-26T16:50:25;-0.10;99.90
285;DHT22;127;48.770;9.212;2023-01-26T16:52:54;-0.10;99.90
285;DHT22;127;48.770;9.212;2023-01-26T16:55:22;-0.10;99.90
285;DHT22;127;48.770;9.212;2023-01-26T16:57:54;0.00;99.90
285;DHT22;127;48.770;9.212;2023-01-26T17:00:23;0.10;99.90
285;DHT22;127;48.770;9.212;2023-01-26T17:02:52;0.10;99.90
285;DHT22;127;48.770;9.212;2023-01-26T17:05:20;0.10;99.90
285;DHT22;127;48.770;9.212;2023-01-26T17:07:49;-0.10;99.90
285;DHT22;127;48.770;9.212;2023-01-26T17:10:18;0.00;99.90
285;DHT22;127;48.770;9.212;2023-01-26T17:12:48;0.00;99.90
285;DHT22;127;48.770;9.212;2023-01-26T17:15:20;-0.10;99.90
285;DHT22;127;48.770;9.212;2023-01-26T17:17:49;-0.10;99.90
285;DHT22;127;48.770;9.212;2023-01-26T17:20:18;-0.10;99.90
285;DHT22;127;48.770;9.212;2023-01-26T17:22:46;-0.10;99.90
285;DHT22;127;48.770;9.212;2023-01-26T17:25:16;-0.20;99.90
285;DHT22;127;48.770;9.212;2023-01-26T17:27:45;-0.20;99.90
285;DHT22;127;48.770;9.212;2023-01-26T17:30:16;-0.30;99.90
285;DHT22;127;48.770;9.212;2023-01-26T17:32:47;-0.30;99.90
285;DHT22;127;48.770;9.212;2023-01-26T17:35:16;-0.40;99.90
285;DHT22;127;48.770;9.212;2023-01-26T17:37:44;-0.40;99.90
285;DHT22;127;48.770;9.212;2023-01-26T17:40:13;-0.40;99.90
285;DHT22;127;48.770;9.212;2023-01-26T17:42:42;-0.40;99.90
285;DHT22;127;48.770;9.212;2023-01-26T17:45:11;-0.50;99.90
285;DHT22;127;48.770;9.212;2023-01-26T17:47:39;-0.60;99.90
285;DHT22;127;48.770;9.212;2023-01-26T17:50:11;-0.60;1.00
285;DHT22;127;48.770;9.212;2023-01-26T17:52:40;-0.60;1.00
285;DHT22;127;48.770;9.212;2023-01-26T17:55:08;-0.60;1.00
285;DHT22;127;48.770;9.212;2023-01-26T17:57:37;-0.60;1.00
285;DHT22;127;48.770;9.212;2023-01-26T18:00:07;-0.60;1.00
285;DHT22;127;48.770;9.212;2023-01-26T18:02:36;-0.60;1.00
285;DHT22;127;48.770;9.212;2023-01-26T18:05:06;-0.60;1.00
285;DHT22;127;48.770;9.212;2023-01-26T18:07:38;-0.70;1.00
285;DHT22;127;48.770;9.212;2023-01-26T18:10:08;-0.70;1.00
285;DHT22;127;48.770;9.212;2023-01-26T18:12:37;-0.60;1.00
285;DHT22;127;48.770;9.212;2023-01-26T18:15:06;-0.70;1.00
285;DHT22;127;48.770;9.212;2023-01-26T18:17:35;-0.70;1.00
285;DHT22;127;48.770;9.212;2023-01-26T18:20:05;-0.70;1.00
285;DHT22;127;48.770;9.212;2023-01-26T18:22:33;-0.70;1.00
285;DHT22;127;48.770;9.212;2023-01-26T18:25:05;-0.80;1.00
285;DHT22;127;48.770;9.212;2023-01-26T18:27:34;-0.80;1.00
285;DHT22;127;48.770;9.212;2023-01-26T18:30:04;-0.90;1.00
285;DHT22;127;48.770;9.212;2023-01-26T18:32:34;-0.90;1.00
285;DHT22;127;48.770;9.212;2023-01-26T18:35:04;-1.00;1.00
285;DHT22;127;48.770;9.212;2023-01-26T18:37:33;-0.90;1.00
285;DHT22;127;48.770;9.212;2023-01-26T18:40:06;-0.90;1.00